Historique des stations

Station météo de Varennes-sur-Fouzon

Altitude de la station : 118 m







Données météorologiques pour le 24/09/2022
Date
Heure
Températures Humidité Point de rosée Vitesse
du vent
Direction Rafales Windchill Pression Pluviométrie
Cumul
Date
Heure
Températures Humidité Point de rosée Vitesse
du vent
Direction Rafales Windchill Pression Pluviométrie
Cumul
24/09/2022 19:0017.0 °C74 %12.3 °C4 km/hOSO13 km/h17.01013 hPa0.0 mm
24/09/2022 18:4017.7 °C70 %12.2 °C4 km/hOSO15 km/h17.71013 hPa0.0 mm
24/09/2022 18:3019.4 °C63 %12.2 °C3 km/hOSO13 km/h19.41013 hPa0.0 mm
24/09/2022 18:1019.7 °C60 %11.7 °C3 km/hO11 km/h19.71013 hPa0.0 mm
24/09/2022 18:0019.6 °C61 %11.9 °C4 km/hO5 km/h19.61013 hPa0.0 mm
24/09/2022 17:4019.6 °C59 %11.4 °C4 km/hO6 km/h19.61013 hPa0.0 mm
24/09/2022 17:3019.9 °C58 %11.4 °C4 km/hO11 km/h19.91013 hPa0.0 mm
24/09/2022 17:1019.7 °C61 %12.0 °C4 km/hO13 km/h19.71013 hPa0.0 mm
24/09/2022 17:0019.6 °C63 %12.3 °C4 km/hOSO11 km/h19.61013 hPa0.0 mm
24/09/2022 16:4019.1 °C64 %12.1 °C5 km/hO11 km/h19.11013 hPa0.0 mm
24/09/2022 16:3019.3 °C63 %12.1 °C6 km/hOSO10 km/h19.31013 hPa0.0 mm
24/09/2022 16:1019.3 °C61 %11.6 °C6 km/hO8 km/h19.31013 hPa0.0 mm
24/09/2022 16:00---6 km/h---1013 hPa0.0 mm
24/09/2022 15:4019.3 °C60 %11.4 °C5 km/hOSO16 km/h19.31013 hPa0.0 mm
24/09/2022 15:3019.6 °C60 %11.6 °C5 km/hOSO11 km/h19.61013 hPa0.0 mm
24/09/2022 15:1019.1 °C60 %11.2 °C6 km/hOSO15 km/h19.11013 hPa0.0 mm
24/09/2022 15:0019.2 °C60 %11.2 °C6 km/hO11 km/h19.21013 hPa0.0 mm
24/09/2022 14:4019.3 °C59 %11.1 °C6 km/hO13 km/h19.31014 hPa0.0 mm
24/09/2022 14:3020.6 °C56 %11.5 °C5 km/hO18 km/h20.61014 hPa0.0 mm
24/09/2022 14:1020.5 °C55 %11.1 °C5 km/hOSO15 km/h20.51014 hPa0.0 mm
24/09/2022 14:0019.9 °C56 %10.9 °C5 km/hO15 km/h19.91014 hPa0.0 mm
24/09/2022 13:4019.8 °C55 %10.5 °C5 km/hO16 km/h19.81014 hPa0.0 mm
24/09/2022 13:3019.6 °C56 %10.5 °C5 km/hOSO15 km/h19.61014 hPa0.0 mm
24/09/2022 13:1018.8 °C61 %11.1 °C4 km/hOSO11 km/h18.81014 hPa0.0 mm
24/09/2022 13:0018.2 °C61 %10.6 °C4 km/h13 km/h18.21014 hPa0.0 mm
24/09/2022 12:4019.0 °C60 %11.1 °C4 km/h11 km/h19.01014 hPa0.0 mm
24/09/2022 12:3018.6 °C61 %10.9 °C3 km/hO10 km/h18.61014 hPa0.0 mm
24/09/2022 12:1018.2 °C61 %10.5 °C3 km/hO10 km/h18.21014 hPa0.0 mm
24/09/2022 12:0017.7 °C63 %10.6 °C2 km/hONO13 km/h17.71014 hPa0.0 mm
24/09/2022 11:4017.6 °C65 %10.9 °C2 km/hSO6 km/h17.61014 hPa0.0 mm
24/09/2022 11:3017.2 °C65 %10.6 °C1 km/hO6 km/h17.21015 hPa0.0 mm
24/09/2022 11:1017.0 °C66 %10.6 °C-SO6 km/h17.01015 hPa0.0 mm
24/09/2022 11:0016.9 °C69 %11.2 °C-SSO3 km/h16.91014 hPa0.0 mm
24/09/2022 10:4015.8 °C71 %10.5 °C1 km/hSSO3 km/h15.81015 hPa0.0 mm
24/09/2022 10:3015.9 °C71 %10.6 °C1 km/hSSO3 km/h15.91015 hPa0.0 mm
24/09/2022 10:1015.6 °C73 %10.8 °C1 km/hS5 km/h15.61014 hPa0.0 mm
24/09/2022 10:0014.9 °C75 %10.5 °C1 km/hS3 km/h14.91014 hPa0.0 mm
24/09/2022 09:4014.3 °C78 %10.5 °C-S3 km/h14.31014 hPa0.0 mm
24/09/2022 09:3013.3 °C81 %10.1 °C-S3 km/h13.31014 hPa0.0 mm
24/09/2022 09:1012.2 °C84 %9.6 °C-SSE2 km/h12.21014 hPa0.0 mm
24/09/2022 09:0011.3 °C86 %9.0 °C-SSE2 km/h11.31014 hPa0.0 mm
24/09/2022 08:4010.6 °C88 %8.7 °C---10.61014 hPa0.0 mm
24/09/2022 08:3010.0 °C89 %8.3 °C-SSE2 km/h10.01014 hPa0.0 mm
24/09/2022 07:4010.1 °C88 %8.2 °C---10.11014 hPa0.0 mm
24/09/2022 07:3010.4 °C88 %8.5 °C---10.41014 hPa0.0 mm
24/09/2022 06:4010.4 °C87 %8.4 °C---10.41013 hPa0.0 mm
24/09/2022 06:3010.5 °C87 %8.4 °C---10.51013 hPa0.0 mm
24/09/2022 05:1010.2 °C86 %7.9 °C---10.21014 hPa0.0 mm
24/09/2022 04:4011.3 °C84 %8.7 °C---11.31014 hPa0.0 mm
24/09/2022 04:3011.4 °C83 %8.7 °C---11.41014 hPa0.0 mm
24/09/2022 03:4011.9 °C81 %8.8 °C---11.91014 hPa0.0 mm
24/09/2022 03:0012.6 °C79 %9.0 °C-SSE2 km/h12.61014 hPa0.0 mm
24/09/2022 02:4012.4 °C79 %8.9 °C---12.41014 hPa0.0 mm


Minima :

Température : 10.0 °C
Humidité : 55 %
Point de rosée : 7.9 °C
Vent moyen : 1 km/h
Windchill : 10.0
Pression atm. : 1013 hPa
Maxima :

Température : 20.6 °C
Humidité : 89 %
Point de rosée : 12.3 °C
Vent moyen : 6 km/h
Windchill : 20.6
Pression atm. : 1015 hPa
Rafales max : 18 km/h
Cumul de pluie sur 24H : 0 mm

Varennes sur fouzon est une commune du département Indre (36).
La station météorologique du réseau de l'association la plus proche de Varennes-sur-Fouzon est celle de Vicq-sur-Nahon



Icône Facebook Association Météo Centre Icône Twitter Association Météo Centre Icône Chaîne Youtube Association Météo Centre Icône contact Association Météo Centre Icône Insta Association Météo Centre